Airfield :
LOGIN :

Register | Disclaimer

   EN    FR    IT 

 










Legend :    VFR   Marginal VFR   IFR   Intensive IFR   Very Intensive IFR
Visi :
Ceiling :
>= 8 km
>= 3000ft
5 to 8 km
1000 to 3000 ft
1500m to 5 km
500 to 1000 ft
800 to 1500m
200 to 500 ft
< 800m
< 200 ft
Symbols :   Thunderstorms  Fog  Heavy snow  Heavy precipitations  Wind > 20 kt
SIGMETs :     Misc.  Thunderstorms  Icing  Turbulence  Mountain Waves  Volcanic Ashes







- Airport Elevation : 1363 ft


ETIC - Grafenwohr Army Air Field

CURRENT METAR :
  • 132156Z AUTO 08007KT 9999 OVC020 M02/M05 A3004 RMK AO2 SLP200 T10171050 $

EXPIRED METARs :
  • 132111Z AUTO 08006KT 9999 OVC020 M02/M05 A3004 RMK AO2 SLP200 $
  • 132056Z AUTO 09009KT 9999 OVC019 M01/M05 A3004 RMK AO2 SLP200 T10141049 51004 $
  • 132026Z AUTO 06009G14KT 9999 OVC019 M01/M04 A3003 RMK AO2 SLP196 $
  • 131956Z AUTO 09007KT 9999 OVC021 M01/M05 A3003 RMK AO2 SLP196 T10131048 $

TAF TAF ETIC
Valid from the 13 at 20:00 until the 15 at 02:00 UTC


132000Z 1320/1502 09008KT 9999 BKN020 OVC040 610206 QNH3005INS
BECMG 1408/1409 VRB06KT 9999 SCT025 BKN040 610404 QNH3007INS
BECMG 1417/1418 VRB06KT 9999 BKN020 OVC040 610205 QNH3010INS TX00/1412Z TNM04/1404Z
No reported NOTAMs for that airfield.



MET'MAP, your aeronautical weather chart ! - Copyright ORBIFLY December 2007 - Disclaimer

ORBIFLY MET'MAP TEAM :

Programming & Development : Alexandra Zaïnal
Concept & Development : Baudouin d'Aumeries
Co-Development & Prog : Marc-Olivier Méhu
Technical & hardware support : Manuel Goepfert

Contact : metmap@orbifly.com




SOURCES & CREDITS :

   NOAA